createdAt,value
2022-09-02T00:01:51.502Z,55.77
2022-09-02T00:04:23.325Z,55.42
2022-09-02T00:06:55.066Z,55.75
2022-09-02T00:09:26.309Z,55.82
2022-09-02T00:11:56.099Z,55.88
2022-09-02T00:14:27.644Z,55.84
2022-09-02T00:16:56.211Z,56.09
2022-09-02T00:19:26.788Z,56.15
2022-09-02T00:21:58.594Z,55.94
2022-09-02T00:24:27.456Z,56.30
2022-09-02T00:26:59.108Z,56.29
2022-09-02T00:29:28.669Z,55.99
2022-09-02T00:31:57.174Z,55.83
2022-09-02T00:34:28.625Z,56.04
2022-09-02T00:36:59.145Z,56.28
2022-09-02T00:39:27.628Z,56.59
2022-09-02T00:41:56.206Z,56.67
2022-09-02T00:44:24.371Z,57.07
2022-09-02T00:46:52.463Z,57.02
2022-09-02T00:49:28.368Z,56.72
2022-09-02T00:52:07.318Z,57.21
2022-09-02T00:54:41.090Z,56.97
2022-09-02T00:57:16.064Z,57.10
2022-09-02T00:59:54.379Z,57.04
2022-09-02T01:02:25.467Z,56.87
2022-09-02T01:13:28.579Z,57.21
2022-09-02T01:16:02.417Z,57.42
2022-09-02T01:18:32.408Z,57.19
2022-09-02T01:21:02.410Z,57.16
2022-09-02T01:23:34.818Z,57.07
2022-09-02T01:26:05.008Z,57.16
2022-09-02T01:28:34.940Z,57.49
2022-09-02T01:31:04.083Z,57.15
2022-09-02T01:33:32.269Z,57.26
2022-09-02T01:36:02.222Z,57.44
2022-09-02T01:38:36.418Z,57.56
2022-09-02T01:41:04.448Z,60.93
2022-09-02T01:43:35.186Z,57.79
2022-09-02T01:46:04.373Z,57.36
2022-09-02T01:48:34.100Z,57.47
2022-09-02T01:51:05.177Z,57.46
2022-09-02T01:53:35.245Z,57.32
2022-09-02T01:56:04.324Z,57.46
2022-09-02T01:58:36.357Z,57.61
2022-09-02T02:01:05.289Z,57.75
2022-09-02T02:03:34.189Z,57.50
2022-09-02T02:06:03.216Z,57.61
2022-09-02T02:08:34.159Z,57.50
2022-09-02T02:11:03.803Z,58.01
2022-09-02T02:13:33.375Z,57.51
2022-09-02T02:16:01.604Z,57.83
2022-09-02T02:18:31.363Z,58.29
2022-09-02T02:21:03.680Z,58.12
2022-09-02T02:23:35.003Z,58.29
2022-09-02T02:26:05.869Z,58.25
2022-09-02T02:28:37.413Z,58.27
2022-09-02T02:31:07.784Z,58.08
2022-09-02T02:33:38.977Z,58.15
2022-09-02T02:36:10.631Z,58.57
2022-09-02T02:38:40.125Z,58.13
2022-09-02T02:41:10.881Z,57.97
2022-09-02T02:43:42.267Z,58.47
2022-09-02T02:46:13.632Z,58.45
2022-09-02T02:48:44.091Z,58.52
2022-09-02T02:51:15.229Z,58.92
2022-09-02T02:53:48.424Z,59.08
2022-09-02T02:56:21.532Z,59.34
2022-09-02T02:58:51.786Z,59.71
2022-09-02T03:01:21.641Z,59.36
2022-09-02T03:03:52.550Z,59.13
2022-09-02T03:06:24.836Z,59.05
2022-09-02T03:08:55.298Z,59.29
2022-09-02T03:11:28.396Z,59.55
2022-09-02T03:13:57.743Z,60.14
2022-09-02T03:16:27.377Z,59.31
2022-09-02T03:18:56.629Z,59.75
2022-09-02T03:21:24.906Z,60.00
2022-09-02T03:23:54.261Z,60.02
2022-09-02T03:26:27.423Z,59.73
2022-09-02T03:28:57.653Z,60.01
2022-09-02T03:31:28.601Z,59.48
2022-09-02T03:33:57.946Z,59.79
2022-09-02T03:36:31.566Z,59.81
2022-09-02T03:39:03.686Z,59.99
2022-09-02T03:41:36.944Z,59.96
2022-09-02T03:44:06.634Z,59.59
2022-09-02T03:46:36.809Z,60.15
2022-09-02T03:49:06.728Z,60.61
2022-09-02T03:51:35.020Z,59.87
2022-09-02T03:54:07.505Z,59.56
2022-09-02T03:56:38.892Z,59.56
2022-09-02T03:59:10.193Z,59.94
2022-09-02T04:01:39.724Z,59.71
2022-09-02T04:04:12.669Z,60.04
2022-09-02T04:06:41.983Z,60.06
2022-09-02T04:09:10.603Z,59.91
2022-09-02T04:11:43.655Z,60.00
2022-09-02T04:14:13.848Z,60.72
2022-09-02T04:16:42.566Z,60.53
2022-09-02T04:19:11.316Z,60.12
2022-09-02T04:21:42.609Z,60.48
2022-09-02T04:24:12.798Z,60.54
2022-09-02T04:26:46.827Z,60.24
2022-09-02T04:29:20.855Z,60.57
2022-09-02T04:31:52.914Z,60.90
2022-09-02T04:34:59.522Z,61.33
2022-09-02T04:37:33.275Z,60.96
2022-09-02T04:40:11.338Z,61.20
2022-09-02T04:42:41.449Z,60.31
2022-09-02T04:45:11.746Z,60.60
2022-09-02T04:47:41.388Z,60.52
2022-09-02T04:50:10.777Z,60.43
2022-09-02T04:52:39.605Z,60.81
2022-09-02T04:55:08.119Z,60.74
2022-09-02T04:57:37.494Z,60.66
2022-09-02T05:00:14.778Z,60.84
2022-09-02T05:02:43.257Z,60.72
2022-09-02T05:05:18.405Z,61.00
2022-09-02T05:07:47.201Z,60.59
2022-09-02T05:10:15.941Z,61.13
2022-09-02T05:12:47.198Z,60.87
2022-09-02T05:15:16.733Z,60.61
2022-09-02T05:17:52.303Z,60.93
2022-09-02T05:20:20.699Z,60.83
2022-09-02T05:22:50.655Z,61.05
2022-09-02T05:25:21.642Z,60.97
2022-09-02T05:27:53.638Z,60.76
2022-09-02T05:30:23.174Z,60.70
2022-09-02T05:32:51.571Z,61.17
2022-09-02T05:35:19.639Z,61.09
2022-09-02T05:37:48.093Z,60.97
2022-09-02T05:40:16.264Z,57.43
2022-09-02T05:42:51.315Z,54.06
2022-09-02T05:45:20.330Z,52.12
2022-09-02T05:47:50.417Z,51.39
2022-09-02T05:50:24.744Z,52.32
2022-09-02T05:52:55.818Z,52.89
2022-09-02T05:55:24.658Z,54.00
2022-09-02T05:57:55.129Z,54.08
2022-09-02T06:00:23.964Z,54.67
2022-09-02T06:03:01.040Z,55.01
2022-09-02T06:05:34.231Z,55.71
2022-09-02T06:08:09.495Z,56.04
2022-09-02T06:10:42.708Z,56.76
2022-09-02T06:13:13.047Z,56.92
2022-09-02T06:15:45.276Z,56.44
2022-09-02T06:18:19.671Z,56.66
2022-09-02T06:20:51.732Z,56.65
2022-09-02T06:23:29.015Z,56.61
2022-09-02T06:26:01.029Z,56.23
2022-09-02T06:28:30.385Z,56.45
2022-09-02T06:31:00.015Z,56.36
2022-09-02T06:33:29.526Z,56.46
2022-09-02T06:35:57.740Z,56.63
2022-09-02T06:38:26.526Z,56.35
2022-09-02T06:40:56.390Z,56.47
2022-09-02T06:43:37.673Z,56.26
2022-09-02T06:46:27.641Z,56.31
2022-09-02T06:49:00.189Z,56.30
2022-09-02T06:51:31.708Z,56.45
2022-09-02T06:54:02.351Z,56.99
2022-09-02T06:56:34.768Z,57.20
2022-09-02T06:59:03.825Z,56.61
2022-09-02T07:01:44.236Z,56.88
2022-09-02T07:04:41.169Z,56.90
2022-09-02T07:07:13.463Z,56.72
2022-09-02T07:09:53.579Z,56.60
2022-09-02T07:12:23.384Z,57.16
2022-09-02T07:15:02.191Z,57.43
2022-09-02T07:17:35.555Z,57.14
2022-09-02T07:20:08.542Z,56.85
2022-09-02T07:22:46.781Z,57.01
2022-09-02T07:25:18.507Z,56.83
2022-09-02T07:27:48.338Z,56.80
2022-09-02T07:30:16.592Z,57.02
2022-09-02T07:32:46.594Z,57.07
2022-09-02T07:35:19.402Z,57.01
2022-09-02T07:37:55.685Z,57.10
2022-09-02T07:40:30.200Z,56.89
2022-09-02T07:42:59.275Z,56.80
2022-09-02T07:45:29.263Z,57.05
2022-09-02T07:47:58.106Z,56.39
2022-09-02T07:50:32.176Z,56.35
2022-09-02T07:53:13.980Z,56.45
2022-09-02T07:55:42.703Z,56.14
2022-09-02T07:58:12.206Z,55.98
2022-09-02T08:00:44.845Z,55.73
2022-09-02T08:03:19.445Z,55.50
2022-09-02T08:05:54.641Z,55.51
2022-09-02T08:08:26.291Z,55.45
2022-09-02T08:10:55.892Z,55.62
2022-09-02T08:13:27.069Z,55.37
2022-09-02T08:15:56.043Z,55.38
2022-09-02T08:18:25.116Z,55.29
2022-09-02T08:20:57.690Z,55.29
2022-09-02T08:23:44.152Z,55.06
2022-09-02T08:26:19.131Z,54.76
2022-09-02T08:28:51.076Z,54.96
2022-09-02T08:31:21.767Z,54.77
2022-09-02T08:33:49.917Z,54.78
2022-09-02T08:36:22.480Z,54.40
2022-09-02T08:38:51.181Z,54.31
2022-09-02T08:41:24.278Z,54.28
2022-09-02T08:43:56.316Z,54.04
2022-09-02T08:46:30.051Z,54.03
2022-09-02T08:49:01.114Z,53.65
2022-09-02T08:51:42.286Z,53.80
2022-09-02T08:54:18.417Z,53.69
2022-09-02T08:56:48.754Z,53.63
2022-09-02T08:59:28.524Z,53.57
2022-09-02T09:02:06.053Z,53.48
2022-09-02T09:04:59.388Z,53.31
2022-09-02T09:07:45.811Z,53.23
2022-09-02T09:10:21.098Z,53.21
2022-09-02T09:13:02.551Z,52.97
2022-09-02T09:15:49.373Z,52.63
2022-09-02T09:18:20.396Z,52.56
2022-09-02T09:20:49.560Z,52.58
2022-09-02T09:23:28.878Z,52.33
2022-09-02T09:26:08.989Z,52.21
2022-09-02T09:28:44.834Z,51.89
2022-09-02T09:31:20.971Z,51.80
2022-09-02T09:34:08.228Z,51.08
2022-09-02T09:36:53.701Z,51.77
2022-09-02T09:39:26.202Z,51.58
2022-09-02T09:41:56.484Z,51.43
2022-09-02T09:44:44.662Z,50.57
2022-09-02T09:47:19.797Z,50.56
2022-09-02T09:50:15.966Z,48.64
2022-09-02T09:52:51.414Z,50.30
2022-09-02T09:55:25.209Z,50.75
2022-09-02T09:57:54.746Z,50.52
2022-09-02T10:00:28.048Z,50.17
2022-09-02T10:03:01.818Z,50.20
2022-09-02T10:05:36.923Z,49.89
2022-09-02T10:08:10.142Z,49.80
2022-09-02T10:10:57.557Z,44.94
2022-09-02T10:13:29.805Z,48.89
2022-09-02T10:16:44.047Z,46.69
2022-09-02T10:19:25.435Z,49.31
2022-09-02T10:22:19.880Z,47.97
2022-09-02T10:25:07.764Z,49.33
2022-09-02T10:27:47.427Z,48.54
2022-09-02T10:30:21.851Z,47.67
2022-09-02T10:33:17.710Z,46.44
2022-09-02T10:35:48.692Z,49.03
2022-09-02T10:38:42.290Z,43.64
2022-09-02T10:41:32.689Z,45.97
2022-09-02T10:44:30.396Z,47.39
2022-09-02T10:47:02.387Z,48.48
2022-09-02T10:49:57.868Z,47.02
2022-09-02T10:53:05.952Z,44.40
2022-09-02T10:55:58.638Z,47.72
2022-09-02T10:58:40.178Z,48.22
2022-09-02T11:01:17.165Z,47.91
2022-09-02T11:03:52.037Z,47.97
2022-09-02T11:06:35.345Z,47.71
2022-09-02T11:09:16.608Z,47.39
2022-09-02T11:12:03.866Z,46.89
2022-09-02T11:14:37.235Z,47.64
2022-09-02T11:17:12.945Z,47.36
2022-09-02T11:19:49.118Z,47.00
2022-09-02T11:22:27.604Z,47.57
2022-09-02T11:25:01.830Z,48.25
2022-09-02T11:27:42.478Z,47.92
2022-09-02T11:30:21.008Z,47.87
2022-09-02T11:35:54.856Z,47.66
2022-09-02T11:38:37.293Z,46.65
2022-09-02T11:41:37.669Z,46.64
2022-09-02T11:44:40.752Z,46.93
2022-09-02T11:47:29.314Z,46.78
2022-09-02T11:50:35.782Z,45.78
2022-09-02T11:53:25.193Z,46.50
2022-09-02T11:56:04.562Z,46.69
2022-09-02T11:58:41.908Z,46.59
2022-09-02T12:01:32.421Z,44.32
2022-09-02T12:07:33.864Z,45.04
2022-09-02T12:10:02.826Z,46.78
2022-09-02T12:13:08.282Z,46.06
2022-09-02T12:15:37.069Z,46.83
2022-09-02T12:18:14.576Z,46.07
2022-09-02T12:21:15.980Z,45.47
2022-09-02T12:24:22.281Z,45.26
2022-09-02T12:27:10.057Z,44.02
2022-09-02T12:29:40.341Z,46.54
2022-09-02T12:32:10.428Z,46.08
2022-09-02T12:34:57.029Z,43.92
2022-09-02T12:38:16.750Z,44.71
2022-09-02T12:41:03.996Z,46.02
2022-09-02T12:43:38.497Z,46.21
2022-09-02T12:46:18.641Z,45.86
2022-09-02T12:49:05.720Z,43.40
2022-09-02T12:51:54.968Z,41.50
2022-09-02T12:54:29.029Z,46.76
2022-09-02T12:56:56.994Z,47.07
2022-09-02T12:59:30.836Z,47.60
2022-09-02T13:02:30.361Z,47.12
2022-09-02T13:05:15.948Z,47.49
2022-09-02T13:08:44.742Z,45.03
2022-09-02T13:11:57.968Z,42.39
2022-09-02T13:15:02.165Z,43.91
2022-09-02T13:17:48.032Z,45.21
2022-09-02T13:20:42.389Z,42.52
2022-09-02T13:24:02.156Z,45.96
2022-09-02T13:26:58.754Z,46.78
2022-09-02T13:30:19.463Z,46.14
2022-09-02T13:32:59.500Z,47.65
2022-09-02T13:35:29.864Z,47.81
2022-09-02T13:38:00.650Z,47.18
2022-09-02T13:40:33.545Z,47.02
2022-09-02T13:43:17.137Z,46.58
2022-09-02T13:45:46.586Z,46.30
2022-09-02T13:48:19.081Z,45.79
2022-09-02T13:50:49.199Z,46.07
2022-09-02T13:53:54.003Z,46.45
2022-09-02T13:56:17.610Z,46.53
2022-09-02T13:58:49.019Z,46.68
2022-09-02T14:01:27.957Z,46.65
2022-09-02T14:03:58.926Z,47.00
2022-09-02T14:06:29.780Z,46.64
2022-09-02T14:09:00.731Z,46.73
2022-09-02T14:11:34.633Z,46.99
2022-09-02T14:14:02.877Z,41.72
2022-09-02T14:16:34.260Z,46.91
2022-09-02T14:19:11.715Z,46.71
2022-09-02T14:21:47.141Z,47.31
2022-09-02T14:24:17.655Z,47.45
2022-09-02T14:26:48.506Z,46.31
2022-09-02T14:29:18.768Z,46.61
2022-09-02T14:31:47.718Z,46.44
2022-09-02T14:34:53.363Z,45.66
2022-09-02T14:37:24.097Z,46.63
2022-09-02T14:40:11.757Z,45.56
2022-09-02T14:42:56.603Z,45.60
2022-09-02T14:45:35.929Z,45.61
2022-09-02T14:48:21.105Z,45.37
2022-09-02T14:50:49.587Z,45.41
2022-09-02T14:53:24.901Z,45.05
2022-09-02T14:55:54.925Z,45.78
2022-09-02T14:58:27.050Z,45.75
2022-09-02T15:00:57.041Z,45.92
2022-09-02T15:03:28.998Z,45.95
2022-09-02T15:05:59.440Z,45.96
2022-09-02T15:08:27.431Z,45.40
2022-09-02T15:11:01.007Z,45.59
2022-09-02T15:13:33.813Z,45.99
2022-09-02T15:16:05.898Z,46.12
2022-09-02T15:18:36.472Z,46.44
2022-09-02T15:21:29.978Z,45.36
2022-09-02T15:24:07.226Z,45.91
2022-09-02T15:31:00.173Z,45.31
2022-09-02T15:33:28.878Z,45.62
2022-09-02T15:35:56.816Z,45.88
2022-09-02T15:38:24.858Z,45.69
2022-09-02T15:40:52.914Z,45.81
2022-09-02T15:43:27.044Z,45.77
2022-09-02T15:45:54.935Z,45.59
2022-09-02T15:48:26.730Z,45.89
2022-09-02T15:50:58.620Z,45.96
2022-09-02T15:53:26.497Z,45.46
2022-09-02T15:55:59.858Z,45.60
2022-09-02T15:58:28.098Z,45.47
2022-09-02T16:00:55.965Z,45.40
2022-09-02T16:03:39.250Z,44.35
2022-09-02T16:06:14.524Z,44.09
2022-09-02T16:08:44.380Z,44.69
2022-09-02T16:11:17.722Z,44.78
2022-09-02T16:13:49.502Z,44.48
2022-09-02T16:16:18.616Z,44.61
2022-09-02T16:18:51.375Z,44.79
2022-09-02T16:21:23.544Z,44.85
2022-09-02T16:23:52.820Z,44.83
2022-09-02T16:26:25.123Z,44.40
2022-09-02T16:28:55.661Z,44.44
2022-09-02T16:31:29.560Z,44.59
2022-09-02T16:33:59.602Z,40.66
2022-09-02T16:36:33.189Z,45.46
2022-09-02T16:39:01.760Z,40.35
2022-09-02T16:41:32.481Z,45.20
2022-09-02T16:44:01.154Z,45.13
2022-09-02T16:46:30.406Z,45.37
2022-09-02T16:48:59.981Z,45.57
2022-09-02T16:51:30.049Z,45.57
2022-09-02T16:54:00.480Z,45.56
2022-09-02T16:56:30.625Z,45.51
2022-09-02T16:59:02.711Z,45.43
2022-09-02T17:01:32.498Z,45.54
2022-09-02T17:04:03.012Z,45.94
2022-09-02T17:06:31.903Z,45.97
2022-09-02T17:09:05.618Z,45.50
2022-09-02T17:11:36.486Z,46.00
2022-09-02T17:14:06.774Z,45.96
2022-09-02T17:16:36.961Z,45.67
2022-09-02T17:19:06.958Z,45.81
2022-09-02T17:21:40.592Z,45.76
2022-09-02T17:24:11.304Z,46.17
2022-09-02T17:26:41.601Z,45.84
2022-09-02T17:29:26.285Z,45.62
2022-09-02T17:31:59.882Z,45.82
2022-09-02T17:34:30.968Z,45.99
2022-09-02T17:36:58.940Z,46.14
2022-09-02T17:39:27.050Z,46.09
2022-09-02T17:41:57.672Z,46.11
2022-09-02T17:44:28.102Z,46.08
2022-09-02T17:46:57.651Z,46.15
2022-09-02T17:49:25.773Z,46.34
2022-09-02T17:51:55.379Z,46.44
2022-09-02T17:54:23.519Z,46.37
2022-09-02T17:57:10.010Z,46.19
2022-09-02T17:59:59.170Z,46.30
2022-09-02T18:02:53.396Z,46.82
2022-09-02T18:05:29.282Z,46.63
2022-09-02T18:08:15.570Z,46.47
2022-09-02T18:10:58.004Z,46.53
2022-09-02T18:13:34.053Z,46.99
2022-09-02T18:16:25.642Z,46.56
2022-09-02T18:19:22.341Z,45.92
2022-09-02T18:22:06.341Z,46.81
2022-09-02T18:24:52.027Z,46.98
2022-09-02T18:27:43.680Z,46.58
2022-09-02T18:30:19.843Z,46.89
2022-09-02T18:33:15.629Z,46.11
2022-09-02T18:35:55.632Z,46.91
2022-09-02T18:38:28.653Z,47.04
2022-09-02T18:41:25.185Z,47.17
2022-09-02T18:44:29.051Z,47.15
2022-09-02T18:47:01.871Z,47.21
2022-09-02T18:49:35.809Z,47.29
2022-09-02T18:52:07.538Z,47.35
2022-09-02T18:54:46.451Z,47.35
2022-09-02T18:57:16.195Z,47.55
2022-09-02T18:59:53.164Z,47.35
2022-09-02T19:02:29.018Z,47.54
2022-09-02T19:05:07.072Z,47.59
2022-09-02T19:07:54.961Z,47.69
2022-09-02T19:10:23.655Z,47.78
2022-09-02T19:12:57.176Z,47.83
2022-09-02T19:15:25.689Z,48.02
2022-09-02T19:17:53.740Z,47.91
2022-09-02T19:20:31.105Z,47.68
2022-09-02T19:22:59.468Z,47.82
2022-09-02T19:25:31.898Z,47.93
2022-09-02T19:28:06.004Z,48.13
2022-09-02T19:30:37.419Z,46.18
2022-09-02T19:33:17.507Z,47.83
2022-09-02T19:35:49.993Z,47.98
2022-09-02T19:38:19.649Z,48.05
2022-09-02T19:40:49.610Z,48.05
2022-09-02T19:43:21.056Z,47.95
2022-09-02T19:45:51.510Z,48.06
2022-09-02T19:48:27.634Z,48.15
2022-09-02T19:50:56.752Z,48.41
2022-09-02T19:53:27.884Z,48.32
2022-09-02T19:55:55.757Z,48.40
2022-09-02T19:58:25.786Z,48.47
2022-09-02T20:00:55.456Z,48.44
2022-09-02T20:03:23.446Z,48.48
2022-09-02T20:05:52.569Z,48.38
2022-09-02T20:08:21.043Z,48.53
2022-09-02T20:10:56.260Z,48.65
2022-09-02T20:13:43.365Z,48.79
2022-09-02T20:16:18.292Z,48.74
2022-09-02T20:18:46.725Z,48.76
2022-09-02T20:21:20.606Z,48.63
2022-09-02T20:23:53.753Z,48.68
2022-09-02T20:26:36.680Z,48.68
2022-09-02T20:29:28.396Z,48.55
2022-09-02T20:32:06.041Z,48.62
2022-09-02T20:35:01.821Z,48.34
2022-09-02T20:37:40.458Z,48.92
2022-09-02T20:40:34.841Z,49.10
2022-09-02T20:43:26.159Z,48.90
2022-09-02T20:46:02.963Z,49.23
2022-09-02T20:48:58.495Z,49.30
2022-09-02T20:51:42.247Z,49.16
2022-09-02T20:54:24.178Z,49.46
2022-09-02T20:57:05.131Z,49.33
2022-09-02T20:59:44.902Z,49.23
2022-09-02T21:02:21.477Z,49.36
2022-09-02T21:04:55.714Z,49.42
2022-09-02T21:07:25.377Z,48.85
2022-09-02T21:10:02.341Z,49.23
2022-09-02T21:12:43.021Z,49.43
2022-09-02T21:15:23.971Z,49.36
2022-09-02T21:17:57.928Z,49.44
2022-09-02T21:20:32.114Z,49.49
2022-09-02T21:23:06.909Z,49.53
2022-09-02T21:25:43.993Z,49.74
2022-09-02T21:28:20.922Z,49.71
2022-09-02T21:31:04.171Z,49.47
2022-09-02T21:33:36.272Z,49.66
2022-09-02T21:36:06.408Z,49.80
2022-09-02T21:38:43.059Z,49.89
2022-09-02T21:41:28.834Z,49.83
2022-09-02T21:44:19.558Z,50.44
2022-09-02T21:47:01.398Z,50.34
2022-09-02T21:49:51.698Z,50.41
2022-09-02T21:52:35.023Z,50.39
2022-09-02T21:55:15.586Z,50.58
2022-09-02T21:57:57.077Z,50.35
2022-09-02T22:00:29.074Z,50.75
2022-09-02T22:03:04.023Z,50.46
2022-09-02T22:05:54.949Z,50.67
2022-09-02T22:08:36.023Z,50.70
2022-09-02T22:11:11.865Z,50.42
2022-09-02T22:13:42.028Z,50.47
2022-09-02T22:16:24.620Z,50.64
2022-09-02T22:19:11.171Z,50.96
2022-09-02T22:21:48.211Z,50.86
2022-09-02T22:24:17.699Z,50.74
2022-09-02T22:26:49.982Z,50.75
2022-09-02T22:29:26.673Z,50.93
2022-09-02T22:32:02.762Z,50.75
2022-09-02T22:34:39.040Z,51.16
2022-09-02T22:37:12.099Z,51.31
2022-09-02T22:39:47.808Z,51.00
2022-09-02T22:42:24.446Z,50.92
2022-09-02T22:45:17.123Z,51.04
2022-09-02T22:48:03.962Z,51.13
2022-09-02T22:50:56.334Z,51.36
2022-09-02T22:53:25.674Z,51.46
2022-09-02T22:55:59.759Z,51.08
2022-09-02T22:58:42.350Z,52.87
2022-09-02T23:01:19.274Z,51.09
2022-09-02T23:04:10.956Z,51.42
2022-09-02T23:06:39.038Z,51.31
2022-09-02T23:09:10.361Z,51.46
2022-09-02T23:11:49.685Z,51.10
2022-09-02T23:14:26.728Z,51.06
2022-09-02T23:17:27.387Z,51.98
2022-09-02T23:20:10.697Z,51.46
2022-09-02T23:22:50.731Z,51.57
2022-09-02T23:25:40.186Z,51.70
2022-09-02T23:28:16.626Z,51.23
2022-09-02T23:31:17.842Z,51.79
2022-09-02T23:33:56.968Z,51.78
2022-09-02T23:36:35.194Z,51.97
2022-09-02T23:39:13.028Z,51.78
2022-09-02T23:41:50.686Z,51.68
2022-09-02T23:44:18.652Z,52.05
2022-09-02T23:46:58.155Z,51.73
2022-09-02T23:49:40.163Z,51.93
2022-09-02T23:52:26.215Z,52.27
2022-09-02T23:55:05.699Z,51.95
2022-09-02T23:57:49.360Z,51.98
